createdAt,value
2022-11-04T00:01:47.965Z,97661.16
2022-11-04T00:04:18.201Z,97658.75
2022-11-04T00:06:48.312Z,97664.09
2022-11-04T00:09:20.217Z,97663.75
2022-11-04T00:12:06.530Z,97668.66
2022-11-04T00:14:35.755Z,97653.94
2022-11-04T00:17:22.982Z,97649.78
2022-11-04T00:20:10.220Z,97647.19
2022-11-04T00:22:58.121Z,97641.22
2022-11-04T00:25:43.872Z,97658.66
2022-11-04T00:28:31.397Z,97641.19
2022-11-04T00:31:20.293Z,97640.38
2022-11-04T00:33:48.812Z,97639.88
2022-11-04T00:36:17.021Z,97638.00
2022-11-04T00:38:46.826Z,97635.78
2022-11-04T00:41:28.032Z,97632.91
2022-11-04T00:43:57.894Z,97620.63
2022-11-04T00:46:26.282Z,97623.69
2022-11-04T00:48:54.699Z,97616.63
2022-11-04T00:51:23.194Z,97615.63
2022-11-04T00:53:53.250Z,97612.19
2022-11-04T00:56:21.870Z,97611.50
2022-11-04T00:58:50.289Z,97602.47
2022-11-04T01:01:20.144Z,97604.91
2022-11-04T01:03:49.693Z,97605.66
2022-11-04T01:06:18.468Z,97602.88
2022-11-04T01:08:46.883Z,97603.47
2022-11-04T01:11:17.188Z,97602.75
2022-11-04T01:13:45.253Z,97603.22
2022-11-04T01:16:14.136Z,97600.84
2022-11-04T01:18:42.363Z,97596.38
2022-11-04T01:21:14.253Z,97596.31
2022-11-04T01:23:43.220Z,97591.03
2022-11-04T01:26:14.104Z,97591.94
2022-11-04T01:28:43.718Z,97581.75
2022-11-04T01:31:14.346Z,97574.63
2022-11-04T01:33:42.668Z,97578.75
2022-11-04T01:36:12.431Z,97566.53
2022-11-04T01:38:40.615Z,97573.94
2022-11-04T01:41:10.316Z,97571.53
2022-11-04T01:43:47.946Z,97565.28
2022-11-04T01:46:24.195Z,97563.19
2022-11-04T01:48:53.327Z,97560.72
2022-11-04T01:51:22.769Z,97546.53
2022-11-04T01:53:53.091Z,97545.56
2022-11-04T01:56:21.582Z,97546.31
2022-11-04T01:58:54.845Z,97539.91
2022-11-04T02:01:23.370Z,97538.41
2022-11-04T02:03:54.435Z,97536.50
2022-11-04T02:06:23.779Z,97532.16
2022-11-04T02:08:52.020Z,97517.25
2022-11-04T02:11:37.681Z,97511.63
2022-11-04T02:14:07.144Z,97507.22
2022-11-04T02:16:41.766Z,97511.91
2022-11-04T02:19:26.521Z,97501.88
2022-11-04T02:22:21.372Z,97495.91
2022-11-04T02:25:09.511Z,97492.50
2022-11-04T02:27:50.259Z,97496.84
2022-11-04T02:30:20.433Z,97496.38
2022-11-04T02:33:02.065Z,97498.66
2022-11-04T02:35:37.982Z,97496.06
2022-11-04T02:38:14.182Z,97483.28
2022-11-04T02:40:45.284Z,97484.56
2022-11-04T02:43:14.317Z,97467.09
2022-11-04T02:45:45.993Z,97464.06
2022-11-04T02:48:21.516Z,97467.59
2022-11-04T02:50:53.811Z,97467.28
2022-11-04T02:53:26.072Z,97476.16
2022-11-04T02:55:56.344Z,97475.69
2022-11-04T02:58:30.248Z,97468.72
2022-11-04T03:01:01.271Z,97465.66
2022-11-04T03:03:32.667Z,97459.50
2022-11-04T03:06:02.052Z,97462.84
2022-11-04T03:08:33.262Z,97465.16
2022-11-04T03:11:06.192Z,97466.09
2022-11-04T03:13:38.976Z,97474.56
2022-11-04T03:16:11.654Z,97480.69
2022-11-04T03:18:44.013Z,97469.06
2022-11-04T03:21:14.582Z,97466.78
2022-11-04T03:23:42.981Z,97466.28
2022-11-04T03:26:14.658Z,97464.34
2022-11-04T03:28:47.712Z,97466.78
2022-11-04T03:31:23.259Z,97463.72
2022-11-04T03:33:52.977Z,97460.81
2022-11-04T03:36:22.337Z,97462.91
2022-11-04T03:38:51.155Z,97459.16
2022-11-04T03:41:24.302Z,97456.78
2022-11-04T03:43:52.724Z,97447.16
2022-11-04T03:46:22.865Z,97445.59
2022-11-04T03:48:52.863Z,97434.25
2022-11-04T03:51:21.084Z,97443.59
2022-11-04T03:53:49.537Z,97428.03
2022-11-04T03:56:37.276Z,97427.19
2022-11-04T03:59:18.766Z,97433.50
2022-11-04T04:01:52.973Z,97437.38
2022-11-04T04:04:27.081Z,97428.28
2022-11-04T04:06:59.459Z,97430.50
2022-11-04T04:09:32.930Z,97426.47
2022-11-04T04:12:05.532Z,97422.47
2022-11-04T04:14:42.157Z,97422.69
2022-11-04T04:17:17.372Z,97432.72
2022-11-04T04:19:48.504Z,97424.28
2022-11-04T04:22:19.902Z,97419.44
2022-11-04T04:25:07.423Z,97423.34
2022-11-04T04:27:36.488Z,97419.00
2022-11-04T04:30:08.051Z,97413.22
2022-11-04T04:32:40.441Z,97412.38
2022-11-04T04:35:27.063Z,97416.50
2022-11-04T04:38:17.043Z,97406.09
2022-11-04T04:41:06.108Z,97404.16
2022-11-04T04:43:51.512Z,97409.97
2022-11-04T04:46:20.291Z,97399.50
2022-11-04T04:48:49.928Z,97401.81
2022-11-04T04:51:18.272Z,97395.13
2022-11-04T04:53:46.519Z,97394.31
2022-11-04T04:56:14.878Z,97399.94
2022-11-04T04:58:43.100Z,97390.56
2022-11-04T05:01:12.085Z,97393.56
2022-11-04T05:03:44.972Z,97396.25
2022-11-04T05:06:15.306Z,97389.31
2022-11-04T05:08:43.390Z,97381.72
2022-11-04T05:11:12.096Z,97387.56
2022-11-04T05:13:40.437Z,97371.88
2022-11-04T05:16:10.857Z,97383.59
2022-11-04T05:18:39.026Z,97380.34
2022-11-04T05:21:08.624Z,97385.69
2022-11-04T05:23:38.149Z,97375.88
2022-11-04T05:26:07.008Z,97377.41
2022-11-04T05:28:35.361Z,97372.22
2022-11-04T05:31:05.227Z,97360.50
2022-11-04T05:33:34.232Z,97373.19
2022-11-04T05:36:09.356Z,97366.91
2022-11-04T05:38:39.330Z,97362.72
2022-11-04T05:41:08.723Z,97366.50
2022-11-04T05:43:36.943Z,97360.47
2022-11-04T05:46:05.752Z,97362.53
2022-11-04T05:48:40.043Z,97362.88
2022-11-04T05:51:08.915Z,97365.53
2022-11-04T05:53:38.297Z,97348.69
2022-11-04T05:56:07.068Z,97365.28
2022-11-04T05:58:35.168Z,97363.06
2022-11-04T06:01:15.335Z,97354.66
2022-11-04T06:03:43.782Z,97366.28
2022-11-04T06:06:12.087Z,97363.84
2022-11-04T06:08:45.175Z,97373.41
2022-11-04T06:11:14.052Z,97377.66
2022-11-04T06:13:42.276Z,97370.78
2022-11-04T06:16:10.737Z,97365.06
2022-11-04T06:18:38.847Z,97359.97
2022-11-04T06:21:25.275Z,97360.09
2022-11-04T06:23:56.812Z,97368.88
2022-11-04T06:26:28.251Z,97361.59
2022-11-04T06:28:56.472Z,97366.16
2022-11-04T06:31:24.849Z,97374.63
2022-11-04T06:33:52.935Z,97379.16
2022-11-04T06:36:21.413Z,97377.03
2022-11-04T06:38:49.442Z,97380.00
2022-11-04T06:41:19.810Z,97373.63
2022-11-04T06:43:47.936Z,97381.19
2022-11-04T06:46:27.573Z,97378.00
2022-11-04T06:48:56.989Z,97376.06
2022-11-04T06:51:26.250Z,97382.84
2022-11-04T06:53:54.581Z,97378.66
2022-11-04T06:56:24.637Z,97384.31
2022-11-04T06:58:53.598Z,97378.19
2022-11-04T07:01:27.029Z,97377.56
2022-11-04T07:03:57.841Z,97388.88
2022-11-04T07:06:29.948Z,97386.56
2022-11-04T07:09:00.141Z,97380.75
2022-11-04T07:11:31.732Z,97385.63
2022-11-04T07:14:00.147Z,97390.69
2022-11-04T07:16:28.602Z,97387.88
2022-11-04T07:18:56.754Z,97378.25
2022-11-04T07:21:25.228Z,97376.63
2022-11-04T07:23:53.308Z,97368.53
2022-11-04T07:26:22.007Z,97368.72
2022-11-04T07:28:51.433Z,97379.38
2022-11-04T07:31:20.376Z,97375.16
2022-11-04T07:33:50.152Z,97373.78
2022-11-04T07:36:19.416Z,97369.66
2022-11-04T07:38:47.884Z,97372.31
2022-11-04T07:41:16.923Z,97371.13
2022-11-04T07:43:48.901Z,97370.59
2022-11-04T07:46:19.805Z,97368.53
2022-11-04T07:48:48.269Z,97362.34
2022-11-04T07:51:19.034Z,97365.59
2022-11-04T07:53:47.442Z,97351.56
2022-11-04T07:56:16.127Z,97354.91
2022-11-04T07:58:44.555Z,97371.19
2022-11-04T08:01:15.317Z,97357.75
2022-11-04T08:03:44.815Z,97355.41
2022-11-04T08:06:14.733Z,97357.41
2022-11-04T08:08:43.638Z,97360.97
2022-11-04T08:11:17.778Z,97354.66
2022-11-04T08:13:47.212Z,97353.44
2022-11-04T08:16:17.110Z,97354.78
2022-11-04T08:18:47.607Z,97352.16
2022-11-04T08:21:16.736Z,97346.50
2022-11-04T08:23:46.255Z,97339.91
2022-11-04T08:26:17.268Z,97336.53
2022-11-04T08:28:45.604Z,97337.22
2022-11-04T08:31:16.680Z,97328.38
2022-11-04T08:33:46.784Z,97332.03
2022-11-04T08:36:17.057Z,97336.41
2022-11-04T08:38:45.322Z,97331.69
2022-11-04T08:41:15.465Z,97330.78
2022-11-04T08:43:43.780Z,97319.06
2022-11-04T08:46:12.587Z,97324.13
2022-11-04T08:48:42.311Z,97306.84
2022-11-04T08:51:17.743Z,97310.22
2022-11-04T08:53:45.959Z,97306.56
2022-11-04T08:56:17.418Z,97311.38
2022-11-04T08:58:45.612Z,97301.03
2022-11-04T09:01:14.632Z,97300.44
2022-11-04T09:03:43.335Z,97304.69
2022-11-04T09:06:15.865Z,97296.69
2022-11-04T09:08:44.674Z,97298.03
2022-11-04T09:11:15.199Z,97297.16
2022-11-04T09:13:43.837Z,97296.66
2022-11-04T09:16:13.694Z,97290.63
2022-11-04T09:18:42.066Z,97299.31
2022-11-04T09:21:11.346Z,97298.22
2022-11-04T09:23:40.984Z,97294.78
2022-11-04T09:26:11.854Z,97293.28
2022-11-04T09:28:40.498Z,97290.41
2022-11-04T09:31:10.239Z,97284.31
2022-11-04T09:33:38.855Z,97280.53
2022-11-04T09:36:09.165Z,97288.16
2022-11-04T09:38:38.335Z,97279.50
2022-11-04T09:41:32.060Z,97271.22
2022-11-04T09:44:03.625Z,97273.81
2022-11-04T09:46:33.528Z,97269.69
2022-11-04T09:49:04.148Z,97271.69
2022-11-04T09:51:53.038Z,97264.84
2022-11-04T09:54:24.216Z,97265.50
2022-11-04T09:56:56.583Z,97268.91
2022-11-04T09:59:27.504Z,97272.38
2022-11-04T10:02:05.189Z,97268.03
2022-11-04T10:04:44.913Z,97266.28
2022-11-04T10:07:23.353Z,97265.38
2022-11-04T10:09:59.404Z,97270.34
2022-11-04T10:12:43.429Z,97270.97
2022-11-04T10:15:29.640Z,97270.16
2022-11-04T10:18:11.321Z,97252.69
2022-11-04T10:20:47.000Z,97268.88
2022-11-04T10:23:22.496Z,97255.25
2022-11-04T10:25:53.626Z,97252.22
2022-11-04T10:28:23.481Z,97245.78
2022-11-04T10:30:52.553Z,97249.03
2022-11-04T10:33:26.399Z,97251.06
2022-11-04T10:35:58.516Z,97244.53
2022-11-04T10:38:34.304Z,97249.91
2022-11-04T10:41:07.086Z,97247.78
2022-11-04T10:43:38.869Z,97251.22
2022-11-04T10:46:35.727Z,97247.69
2022-11-04T10:49:31.213Z,97240.50
2022-11-04T10:51:59.484Z,97240.09
2022-11-04T10:54:28.392Z,97242.78
2022-11-04T10:56:57.644Z,97240.59
2022-11-04T10:59:29.415Z,97244.53
2022-11-04T11:01:58.774Z,97239.88
2022-11-04T11:04:30.353Z,97243.19
2022-11-04T11:07:00.333Z,97243.25
2022-11-04T11:09:30.027Z,97226.78
2022-11-04T11:12:01.271Z,97228.38
2022-11-04T11:14:36.895Z,97234.09
2022-11-04T11:17:26.416Z,97222.72
2022-11-04T11:19:59.353Z,97232.09
2022-11-04T11:22:37.836Z,97224.06
2022-11-04T11:25:27.396Z,97220.53
2022-11-04T11:27:57.687Z,97229.50
2022-11-04T11:30:33.050Z,97227.13
2022-11-04T11:33:03.887Z,97214.63
2022-11-04T11:35:34.862Z,97213.69
2022-11-04T11:38:06.236Z,97218.91
2022-11-04T11:40:47.564Z,97203.63
2022-11-04T11:43:27.756Z,97204.19
2022-11-04T11:45:57.891Z,97202.78
2022-11-04T11:48:30.680Z,97194.38
2022-11-04T11:51:00.242Z,97198.69
2022-11-04T11:53:34.319Z,97188.50
2022-11-04T11:56:10.632Z,97187.03
2022-11-04T12:01:36.258Z,97176.94
2022-11-04T12:09:50.773Z,97174.31
2022-11-04T12:12:36.598Z,97169.16
2022-11-04T12:15:19.296Z,97174.91
2022-11-04T12:18:01.532Z,97167.50
2022-11-04T12:20:40.175Z,97175.47
2022-11-04T12:23:14.045Z,97164.66
2022-11-04T12:25:49.071Z,97168.22
2022-11-04T12:28:25.682Z,97164.13
2022-11-04T12:31:02.980Z,97176.63
2022-11-04T12:33:37.543Z,97175.66
2022-11-04T12:36:14.782Z,97169.94
2022-11-04T12:39:08.263Z,97170.66
2022-11-04T12:42:14.303Z,97171.56
2022-11-04T12:44:34.541Z,97174.03
2022-11-04T12:47:14.210Z,97163.03
2022-11-04T12:50:12.285Z,97156.28
2022-11-04T12:53:03.164Z,97147.38
2022-11-04T12:55:43.826Z,97151.13
2022-11-04T12:58:22.319Z,97162.75
2022-11-04T13:00:59.514Z,97161.19
2022-11-04T13:03:32.202Z,97159.78
2022-11-04T13:06:05.763Z,97161.75
2022-11-04T13:08:39.001Z,97160.03
2022-11-04T13:11:22.737Z,97165.25
2022-11-04T13:14:01.615Z,97163.34
2022-11-04T13:16:32.057Z,97167.00
2022-11-04T13:19:00.489Z,97165.53
2022-11-04T13:21:34.446Z,97161.38
2022-11-04T13:24:05.011Z,97162.03
2022-11-04T13:26:33.640Z,97166.34
2022-11-04T13:29:09.015Z,97167.59
2022-11-04T13:31:48.091Z,97162.91
2022-11-04T13:34:26.499Z,97157.66
2022-11-04T13:37:08.679Z,97161.28
2022-11-04T13:39:40.479Z,97167.22
2022-11-04T13:42:34.290Z,97159.94
2022-11-04T13:45:07.873Z,97166.41
2022-11-04T13:47:38.126Z,97173.13
2022-11-04T13:50:07.474Z,97176.84
2022-11-04T13:52:52.557Z,97179.19
2022-11-04T13:55:22.020Z,97170.50
2022-11-04T13:57:55.614Z,97171.66
2022-11-04T14:00:26.113Z,97165.03
2022-11-04T14:02:55.400Z,97168.44
2022-11-04T14:05:47.725Z,97165.19
2022-11-04T14:08:18.206Z,97173.84
2022-11-04T14:10:59.380Z,97168.41
2022-11-04T14:13:46.729Z,97177.81
2022-11-04T14:16:42.503Z,97188.31
2022-11-04T14:19:47.576Z,97183.50
2022-11-04T14:22:17.341Z,97171.84
2022-11-04T14:24:55.948Z,97175.03
2022-11-04T14:27:26.438Z,97173.78
2022-11-04T14:29:55.692Z,97165.69
2022-11-04T14:32:27.801Z,97168.47
2022-11-04T14:35:01.102Z,97160.72
2022-11-04T14:37:32.325Z,97161.25
2022-11-04T14:40:03.852Z,97172.19
2022-11-04T14:42:46.781Z,97175.84
2022-11-04T14:45:18.753Z,97175.97
2022-11-04T14:47:50.185Z,97188.47
2022-11-04T14:50:21.460Z,97194.94
2022-11-04T14:52:52.037Z,97184.72
2022-11-04T14:55:27.305Z,97190.41
2022-11-04T14:57:57.273Z,97188.94
2022-11-04T15:00:31.606Z,97185.81
2022-11-04T15:03:02.174Z,97176.78
2022-11-04T15:05:33.671Z,97173.41
2022-11-04T15:08:03.474Z,97172.81
2022-11-04T15:10:33.323Z,97175.47
2022-11-04T15:13:03.066Z,97178.00
2022-11-04T15:15:34.645Z,97176.41
2022-11-04T15:18:06.765Z,97167.94
2022-11-04T15:20:40.158Z,97172.09
2022-11-04T15:23:10.901Z,97161.91
2022-11-04T15:25:48.395Z,97155.94
2022-11-04T15:28:22.306Z,97152.72
2022-11-04T15:31:06.581Z,97155.34
2022-11-04T15:33:40.209Z,97150.31
2022-11-04T15:36:12.000Z,97149.25
2022-11-04T15:38:42.781Z,97144.84
2022-11-04T15:41:34.367Z,97146.69
2022-11-04T15:44:06.056Z,97141.44
2022-11-04T15:46:34.551Z,97146.31
2022-11-04T15:49:05.685Z,97150.06
2022-11-04T15:51:39.310Z,97140.28
2022-11-04T15:54:09.419Z,97130.38
2022-11-04T15:56:43.938Z,97124.81
2022-11-04T15:59:16.377Z,97119.56
2022-11-04T16:01:46.923Z,97114.50
2022-11-04T16:04:16.688Z,97115.28
2022-11-04T16:06:48.080Z,97111.63
2022-11-04T16:09:24.892Z,97101.19
2022-11-04T16:12:09.259Z,97105.81
2022-11-04T16:14:37.394Z,97107.25
2022-11-04T16:17:06.115Z,97120.84
2022-11-04T16:19:34.652Z,97120.53
2022-11-04T16:22:04.899Z,97120.56
2022-11-04T16:24:35.047Z,97114.41
2022-11-04T16:27:03.730Z,97121.75
2022-11-04T16:29:34.879Z,97120.25
2022-11-04T16:32:10.560Z,97113.31
2022-11-04T16:34:39.070Z,97118.97
2022-11-04T16:37:07.575Z,97112.78
2022-11-04T16:39:35.853Z,97116.69
2022-11-04T16:42:04.461Z,97121.59
2022-11-04T16:44:34.378Z,97119.44
2022-11-04T16:47:03.224Z,97125.25
2022-11-04T16:49:31.543Z,97129.88
2022-11-04T16:52:03.311Z,97127.41
2022-11-04T16:54:31.552Z,97125.78
2022-11-04T16:57:00.333Z,97126.53
2022-11-04T16:59:28.473Z,97137.13
2022-11-04T17:01:58.330Z,97133.31
2022-11-04T17:04:26.669Z,97130.75
2022-11-04T17:06:56.472Z,97131.56
2022-11-04T17:09:25.285Z,97134.91
2022-11-04T17:11:54.883Z,97122.72
2022-11-04T17:14:24.074Z,97126.63
2022-11-04T17:16:52.448Z,97129.28
2022-11-04T17:19:21.890Z,97129.09
2022-11-04T17:21:50.427Z,97127.75
2022-11-04T17:24:18.790Z,97131.81
2022-11-04T17:26:47.304Z,97129.03
2022-11-04T17:29:17.514Z,97141.59
2022-11-04T17:31:46.111Z,97131.41
2022-11-04T17:34:14.158Z,97117.16
2022-11-04T17:36:43.960Z,97113.88
2022-11-04T17:39:12.068Z,97117.50
2022-11-04T17:42:06.369Z,97115.66
2022-11-04T17:44:34.544Z,97107.75
2022-11-04T17:47:03.016Z,97119.22
2022-11-04T17:49:31.159Z,97105.09
2022-11-04T17:52:01.264Z,97108.09
2022-11-04T17:54:30.739Z,97097.31
2022-11-04T17:56:59.330Z,97093.16
2022-11-04T17:59:31.112Z,97085.41
2022-11-04T18:02:02.383Z,97085.34
2022-11-04T18:04:30.676Z,97086.25
2022-11-04T18:07:03.129Z,97094.41
2022-11-04T18:09:32.800Z,97088.31
2022-11-04T18:12:18.642Z,97089.47
2022-11-04T18:14:46.807Z,97106.31
2022-11-04T18:17:15.167Z,97093.94
2022-11-04T18:19:43.401Z,97104.84
2022-11-04T18:22:13.163Z,97105.09
2022-11-04T18:24:41.386Z,97104.75
2022-11-04T18:27:10.620Z,97110.94
2022-11-04T18:29:38.805Z,97113.81
2022-11-04T18:32:07.499Z,97099.34
2022-11-04T18:34:35.870Z,97090.50
2022-11-04T18:37:04.265Z,97091.53
2022-11-04T18:39:33.846Z,97086.84
2022-11-04T18:42:02.672Z,97099.00
2022-11-04T18:44:31.134Z,97094.06
2022-11-04T18:46:59.636Z,97098.78
2022-11-04T18:49:28.106Z,97098.31
2022-11-04T18:51:56.775Z,97088.78
2022-11-04T18:54:24.884Z,97095.09
2022-11-04T18:56:54.739Z,97097.50
2022-11-04T18:59:22.838Z,97096.69
2022-11-04T19:01:53.404Z,97096.78
2022-11-04T19:04:21.716Z,97101.53
2022-11-04T19:06:50.252Z,97116.22
2022-11-04T19:09:45.399Z,97113.81
2022-11-04T19:12:26.517Z,97112.91
2022-11-04T19:14:54.806Z,97126.31
2022-11-04T19:17:23.573Z,97121.72
2022-11-04T19:19:51.738Z,97120.88
2022-11-04T19:22:20.301Z,97125.25
2022-11-04T19:24:48.341Z,97132.50
2022-11-04T19:27:19.799Z,97143.41
2022-11-04T19:29:47.945Z,97136.03
2022-11-04T19:32:16.411Z,97138.38
2022-11-04T19:34:44.665Z,97150.06
2022-11-04T19:37:13.565Z,97142.00
2022-11-04T19:39:41.623Z,97143.41
2022-11-04T19:42:28.572Z,97149.59
2022-11-04T19:44:58.056Z,97147.31
2022-11-04T19:47:26.533Z,97149.38
2022-11-04T19:49:55.510Z,97151.63
2022-11-04T19:52:24.034Z,97158.22
2022-11-04T19:54:52.183Z,97159.31
2022-11-04T19:57:20.615Z,97155.25
2022-11-04T19:59:49.865Z,97159.59
2022-11-04T20:02:20.050Z,97153.78
2022-11-04T20:04:50.053Z,97166.81
2022-11-04T20:07:18.544Z,97172.19
2022-11-04T20:09:46.580Z,97162.16
2022-11-04T20:12:32.247Z,97164.88
2022-11-04T20:15:00.351Z,97173.59
2022-11-04T20:17:32.266Z,97173.91
2022-11-04T20:20:00.347Z,97165.19
2022-11-04T20:22:28.740Z,97177.16
2022-11-04T20:24:56.964Z,97171.41
2022-11-04T20:27:25.360Z,97170.59
2022-11-04T20:29:53.704Z,97193.16
2022-11-04T20:32:22.220Z,97193.66
2022-11-04T20:34:52.280Z,97207.53
2022-11-04T20:37:20.766Z,97205.31
2022-11-04T20:39:48.944Z,97199.19
2022-11-04T20:42:17.424Z,97204.56
2022-11-04T20:44:45.524Z,97204.91
2022-11-04T20:47:13.858Z,97216.41
2022-11-04T20:49:41.978Z,97220.66
2022-11-04T20:52:11.698Z,97227.34
2022-11-04T20:54:39.838Z,97231.66
2022-11-04T20:57:08.206Z,97234.75
2022-11-04T20:59:36.279Z,97228.78
2022-11-04T21:02:04.773Z,97231.94
2022-11-04T21:04:36.140Z,97227.88
2022-11-04T21:07:06.891Z,97237.06
2022-11-04T21:09:36.296Z,97238.41
2022-11-04T21:12:05.389Z,97239.56
2022-11-04T21:14:35.180Z,97233.34
2022-11-04T21:17:04.048Z,97235.69
2022-11-04T21:19:32.365Z,97253.16
2022-11-04T21:22:00.844Z,97256.25
2022-11-04T21:24:28.930Z,97258.44
2022-11-04T21:26:58.796Z,97258.59
2022-11-04T21:29:26.897Z,97258.56
2022-11-04T21:31:55.334Z,97266.25
2022-11-04T21:34:23.635Z,97270.63
2022-11-04T21:36:53.093Z,97265.38
2022-11-04T21:39:22.595Z,97268.34
2022-11-04T21:41:51.033Z,97275.91
2022-11-04T21:44:20.612Z,97251.63
2022-11-04T21:46:51.286Z,97256.69
2022-11-04T21:49:19.700Z,97256.28
2022-11-04T21:51:48.104Z,97258.78
2022-11-04T21:54:16.297Z,97258.31
2022-11-04T21:56:44.638Z,97260.31
2022-11-04T21:59:18.104Z,97250.28
2022-11-04T22:01:48.527Z,97262.72
2022-11-04T22:04:16.784Z,97251.53
2022-11-04T22:06:45.506Z,97250.50
2022-11-04T22:09:13.802Z,97251.41
2022-11-04T22:11:42.263Z,97249.47
2022-11-04T22:14:13.222Z,97246.91
2022-11-04T22:16:41.672Z,97253.41
2022-11-04T22:19:13.618Z,97254.44
2022-11-04T22:21:43.828Z,97255.03
2022-11-04T22:24:12.543Z,97256.81
2022-11-04T22:26:41.247Z,97257.41
2022-11-04T22:29:09.699Z,97257.19
2022-11-04T22:31:40.315Z,97245.53
2022-11-04T22:34:09.816Z,97244.41
2022-11-04T22:36:39.887Z,97255.56
2022-11-04T22:39:11.807Z,97254.41
2022-11-04T22:41:42.553Z,97247.28
2022-11-04T22:44:10.637Z,97242.47
2022-11-04T22:46:40.104Z,97252.78
2022-11-04T22:49:08.630Z,97258.22
2022-11-04T22:51:37.114Z,97258.91
2022-11-04T22:54:08.424Z,97258.78
2022-11-04T22:56:38.131Z,97252.94
2022-11-04T22:59:06.448Z,97249.47
2022-11-04T23:01:36.980Z,97257.09
2022-11-04T23:04:05.899Z,97258.44
2022-11-04T23:06:34.360Z,97271.09
2022-11-04T23:09:02.409Z,97277.09
2022-11-04T23:11:50.545Z,97267.19
2022-11-04T23:14:37.512Z,97273.41
2022-11-04T23:17:31.546Z,97279.91
2022-11-04T23:19:59.720Z,97283.41
2022-11-04T23:22:45.615Z,97284.78
2022-11-04T23:25:14.590Z,97285.97
2022-11-04T23:28:05.260Z,97273.81
2022-11-04T23:30:34.521Z,97273.19
2022-11-04T23:33:05.880Z,97275.38
2022-11-04T23:35:52.879Z,97296.09
2022-11-04T23:38:21.664Z,97295.84
2022-11-04T23:41:05.889Z,97298.47
2022-11-04T23:43:35.925Z,97288.00
2022-11-04T23:46:21.151Z,97300.28
2022-11-04T23:49:21.530Z,97308.22
2022-11-04T23:52:21.541Z,97311.91
2022-11-04T23:55:07.656Z,97307.13
2022-11-04T23:57:53.013Z,97321.50
